Time;durP1;ratioP1;P1;durP2;ratioP2;P2;SDS_P1;SDS_P2;PMS_P1;PMS_P2;Temp;Humidity;BMP_temperature;BMP_pressure;BME280_temperature;BME280_humidity;BME280_pressure;Samples;Min_cycle;Max_cycle;Signal;HPM_P1;HPM_P2
2022/04/26 03:38:53;;;;;;;10.57;7.27;;;10.40;99.90;;;;;;5094421;28;20416;-80
2022/04/26 03:41:37;;;;;;;9.30;7.17;;;10.50;99.90;;;;;;5095574;28;20389;-80
2022/04/26 03:44:22;;;;;;;8.40;6.70;;;10.50;99.90;;;;;;5093392;28;20466;-81
2022/04/26 03:47:07;;;;;;;12.70;7.93;;;10.50;99.90;;;;;;5090723;28;20412;-80
2022/04/26 03:49:51;;;;;;;9.03;7.30;;;10.50;99.90;;;;;;5079328;28;20916;-79
2022/04/26 03:52:40;;;;;;;14.30;8.37;;;10.30;99.90;;;;;;5095673;28;20413;-80
2022/04/26 03:55:24;;;;;;;8.00;7.07;;;10.40;99.90;;;;;;5093875;28;20523;-80
2022/04/26 03:58:09;;;;;;;9.33;7.80;;;10.40;99.90;;;;;;5093027;28;20384;-80
2022/04/26 04:00:56;;;;;;;8.20;7.07;;;10.50;99.90;;;;;;5088693;28;20737;-80
2022/04/26 04:03:40;;;;;;;7.77;6.60;;;10.40;99.90;;;;;;5089476;28;20381;-80
2022/04/26 04:06:25;;;;;;;17.90;7.40;;;10.30;99.90;;;;;;5088767;28;20416;-79
2022/04/26 04:09:10;;;;;;;10.37;9.37;;;10.30;99.90;;;;;;5087711;28;21036;-79
2022/04/26 04:11:55;;;;;;;7.97;7.17;;;10.50;99.90;;;;;;5088305;28;20718;-79
2022/04/26 04:14:39;;;;;;;10.17;7.50;;;10.50;99.90;;;;;;5071676;28;20498;-80
2022/04/26 04:17:24;;;;;;;10.37;8.40;;;10.40;99.90;;;;;;5089203;28;20419;-80
2022/04/26 04:20:10;;;;;;;8.67;6.87;;;10.40;99.90;;;;;;5078496;28;20461;-80
2022/04/26 04:22:55;;;;;;;9.63;8.40;;;10.40;99.90;;;;;;5082558;28;20420;-80
2022/04/26 04:25:41;;;;;;;10.60;8.23;;;10.30;99.90;;;;;;5087456;28;20425;-80
2022/04/26 04:28:25;;;;;;;8.90;6.90;;;10.40;99.90;;;;;;5069614;28;20453;-80
2022/04/26 04:31:10;;;;;;;8.70;7.30;;;10.50;99.90;;;;;;5054288;28;20940;-80
2022/04/26 04:33:54;;;;;;;16.57;7.63;;;10.50;99.90;;;;;;5069862;28;20474;-80
2022/04/26 04:36:39;;;;;;;11.43;8.27;;;10.60;99.90;;;;;;5057057;28;20429;-80
2022/04/26 04:39:24;;;;;;;9.73;7.80;;;10.60;99.90;;;;;;5071781;28;20429;-81
2022/04/26 04:42:08;;;;;;;8.00;6.60;;;10.60;99.90;;;;;;5071972;28;20905;-80
2022/04/26 04:44:53;;;;;;;10.60;9.00;;;10.50;99.90;;;;;;5069792;28;20406;-80
2022/04/26 04:47:38;;;;;;;7.93;6.90;;;10.60;99.90;;;;;;5071536;28;20390;-80
2022/04/26 04:50:23;;;;;;;9.80;7.70;;;10.40;99.90;;;;;;5070034;28;20406;-81
2022/04/26 04:53:07;;;;;;;9.50;8.60;;;10.40;99.90;;;;;;5073854;28;20827;-80
2022/04/26 04:55:52;;;;;;;9.67;7.67;;;10.30;99.90;;;;;;5072866;28;20432;-80
2022/04/26 04:58:36;;;;;;;8.53;7.53;;;10.40;99.90;;;;;;5072663;28;20392;-81
2022/04/26 05:01:21;;;;;;;10.00;7.10;;;10.50;99.90;;;;;;5072202;28;20397;-81
2022/04/26 05:04:05;;;;;;;9.60;8.00;;;10.50;99.90;;;;;;5068801;28;20548;-80
2022/04/26 05:06:50;;;;;;;8.47;7.67;;;10.40;99.90;;;;;;5092901;28;20505;-81
2022/04/26 05:09:37;;;;;;;8.80;7.63;;;10.50;99.90;;;;;;5093407;28;20456;-80
2022/04/26 05:12:21;;;;;;;8.80;7.00;;;10.40;99.90;;;;;;5093926;28;20412;-81
2022/04/26 05:15:06;;;;;;;7.70;7.00;;;10.20;99.90;;;;;;5093674;28;20451;-80
2022/04/26 05:17:50;;;;;;;9.90;7.23;;;10.20;99.90;;;;;;5094068;28;20472;-78
2022/04/26 05:20:35;;;;;;;9.10;8.20;;;10.30;99.90;;;;;;5093189;28;20528;-79
2022/04/26 05:26:23;;;;;;;8.53;7.70;;;10.10;99.90;;;;;;5071835;28;20390;-80
2022/04/26 05:29:08;;;;;;;8.73;7.43;;;10.10;99.90;;;;;;5072756;28;20433;-79
2022/04/26 05:31:53;;;;;;;10.45;9.45;;;10.10;99.90;;;;;;5072931;28;20431;-81
2022/04/26 05:34:38;;;;;;;13.10;8.30;;;10.10;99.90;;;;;;5072666;28;20155;-80
2022/04/26 05:37:22;;;;;;;13.13;7.67;;;10.10;99.90;;;;;;5059262;28;20542;-80
2022/04/26 05:40:07;;;;;;;11.10;9.53;;;10.30;99.90;;;;;;5091011;28;20412;-79
2022/04/26 05:42:54;;;;;;;11.53;7.73;;;10.20;99.90;;;;;;5086395;28;20444;-79
2022/04/26 05:45:39;;;;;;;8.27;7.43;;;10.20;99.90;;;;;;5064789;28;20437;-80
2022/04/26 05:48:23;;;;;;;16.13;8.60;;;10.10;99.90;;;;;;5049432;28;20445;-80
2022/04/26 05:51:08;;;;;;;9.20;8.10;;;10.00;99.90;;;;;;5043967;28;20499;-80
2022/04/26 05:53:53;;;;;;;10.17;8.60;;;9.90;99.90;;;;;;5053719;28;20436;-78
2022/04/26 05:56:37;;;;;;;11.43;8.40;;;10.00;99.90;;;;;;5082736;28;20447;-80
2022/04/26 05:59:22;;;;;;;10.83;9.77;;;9.80;99.90;;;;;;5084637;28;20417;-79
2022/04/26 06:02:07;;;;;;;11.93;9.17;;;9.80;99.90;;;;;;5071179;28;20405;-79
2022/04/26 06:04:51;;;;;;;10.93;8.50;;;9.60;99.90;;;;;;5066292;28;20931;-78
2022/04/26 06:07:36;;;;;;;11.00;8.90;;;9.40;99.90;;;;;;5072541;28;20420;-77
2022/04/26 06:10:22;;;;;;;15.33;9.47;;;9.40;99.90;;;;;;5068792;28;20442;-81
2022/04/26 06:13:08;;;;;;;12.40;8.87;;;9.50;99.90;;;;;;5076257;28;20525;-80
2022/04/26 06:15:52;;;;;;;13.07;9.27;;;9.30;99.90;;;;;;5075664;28;20449;-79
2022/04/26 06:18:37;;;;;;;15.47;8.33;;;9.40;99.90;;;;;;5074252;28;20412;-80
2022/04/26 06:21:22;;;;;;;12.10;8.77;;;9.40;99.90;;;;;;5075007;28;20437;-79
2022/04/26 06:24:06;;;;;;;13.63;10.00;;;9.50;99.90;;;;;;5073300;28;20483;-80
2022/04/26 06:26:51;;;;;;;11.17;9.97;;;9.50;99.90;;;;;;5062401;28;20446;-79
2022/04/26 06:29:36;;;;;;;13.73;10.20;;;9.60;99.90;;;;;;5067004;28;20526;-81
2022/04/26 06:32:20;;;;;;;13.27;9.40;;;9.50;99.90;;;;;;5065889;28;20461;-81
2022/04/26 06:35:05;;;;;;;15.73;11.10;;;9.50;99.90;;;;;;5060372;28;20778;-80
2022/04/26 06:37:50;;;;;;;11.57;8.37;;;9.40;99.90;;;;;;5063556;28;20885;-80
2022/04/26 06:40:35;;;;;;;11.17;8.40;;;9.50;99.90;;;;;;5065360;28;20433;-81
2022/04/26 06:43:20;;;;;;;11.93;10.30;;;9.30;99.90;;;;;;5065375;28;20543;-80
2022/04/26 06:46:05;;;;;;;11.47;10.03;;;9.40;99.90;;;;;;5060757;28;20471;-80
2022/04/26 06:48:49;;;;;;;12.27;10.53;;;9.50;99.90;;;;;;5065839;28;20461;-80
2022/04/26 06:51:38;;;;;;;11.27;9.30;;;9.80;99.90;;;;;;5059423;28;20413;-80
2022/04/26 06:54:22;;;;;;;14.47;10.07;;;9.80;99.90;;;;;;5065187;28;20510;-79
2022/04/26 06:57:07;;;;;;;12.60;10.10;;;9.80;99.90;;;;;;5061533;28;20429;-81
2022/04/26 06:59:52;;;;;;;13.67;10.90;;;10.10;99.90;;;;;;5060334;28;20511;-80
2022/04/26 07:02:36;;;;;;;12.73;10.60;;;10.20;99.90;;;;;;5049602;28;20433;-81
2022/04/26 07:05:21;;;;;;;11.50;9.90;;;10.10;99.90;;;;;;5055250;28;20473;-80
2022/04/26 07:08:06;;;;;;;12.53;10.10;;;9.80;99.90;;;;;;5048635;28;22047;-81
2022/04/26 07:10:51;;;;;;;10.60;9.13;;;9.60;99.90;;;;;;5060806;28;20794;-79
2022/04/26 07:13:35;;;;;;;14.70;9.53;;;9.50;99.90;;;;;;5056916;28;20502;-80
2022/04/26 07:16:19;;;;;;;14.37;10.27;;;9.70;99.90;;;;;;5062320;28;20434;-80
2022/04/26 07:19:04;;;;;;;14.20;9.83;;;9.70;99.90;;;;;;5063841;28;20456;-79
2022/04/26 07:21:49;;;;;;;12.33;10.87;;;9.40;99.90;;;;;;5061406;28;20545;-79
2022/04/26 07:24:34;;;;;;;13.93;10.33;;;9.60;99.90;;;;;;5060824;28;20469;-80
2022/04/26 07:27:20;;;;;;;12.50;9.27;;;9.50;99.90;;;;;;5067220;28;20522;-81
2022/04/26 07:30:06;;;;;;;12.43;10.40;;;9.50;99.90;;;;;;5060300;28;20445;-80
2022/04/26 07:35:54;;;;;;;10.03;8.63;;;9.50;99.90;;;;;;5054960;28;20541;-80
2022/04/26 07:38:38;;;;;;;15.87;10.50;;;9.40;99.90;;;;;;5060147;28;20448;-80
2022/04/26 07:41:24;;;;;;;12.63;10.63;;;9.50;99.90;;;;;;5058150;28;20896;-79
2022/04/26 07:44:09;;;;;;;12.23;9.73;;;9.30;99.90;;;;;;5066096;28;20928;-79
2022/04/26 07:46:58;;;;;;;12.60;9.13;;;9.30;99.90;;;;;;5060500;28;20433;-81
2022/04/26 07:49:42;;;;;;;13.10;10.10;;;9.30;99.90;;;;;;5060436;28;20481;-80
2022/04/26 07:52:28;;;;;;;16.90;10.87;;;9.40;99.90;;;;;;5061325;28;20458;-80
2022/04/26 07:55:13;;;;;;;10.80;9.35;;;9.50;99.90;;;;;;5057045;28;20356;-80
2022/04/26 07:57:59;;;;;;;12.77;8.47;;;9.30;99.90;;;;;;5059585;28;20186;-81
2022/04/26 08:00:46;;;;;;;12.43;10.10;;;9.30;99.90;;;;;;5053974;28;20433;-80
2022/04/26 08:03:35;;;;;;;11.63;8.97;;;9.40;99.90;;;;;;5052835;28;20934;-80
2022/04/26 08:06:19;;;;;;;11.03;9.93;;;9.40;99.90;;;;;;5079838;28;20459;-80
2022/04/26 08:09:04;;;;;;;15.40;9.53;;;9.40;99.90;;;;;;5075072;28;21340;-78
2022/04/26 08:11:49;;;;;;;13.33;8.73;;;9.30;99.90;;;;;;5005662;28;20511;-81
2022/04/26 08:14:34;;;;;;;13.20;10.00;;;9.40;99.90;;;;;;5021096;28;20450;-81
2022/04/26 08:17:18;;;;;;;10.90;8.47;;;9.30;99.90;;;;;;5007986;28;20455;-82
2022/04/26 08:20:06;;;;;;;9.60;8.60;;;9.40;99.90;;;;;;5007772;28;20435;-79
2022/04/26 08:22:50;;;;;;;11.80;9.90;;;9.40;99.90;;;;;;5025599;28;20438;-81
2022/04/26 08:28:31;;;;;;;10.67;8.00;;;9.60;99.90;;;;;;5023845;28;20851;-78
2022/04/26 08:31:16;;;;;;;9.20;7.33;;;9.40;99.90;;;;;;5024893;28;20538;-80
2022/04/26 08:34:00;;;;;;;8.20;6.90;;;9.60;99.90;;;;;;5028389;28;20560;-79
2022/04/26 08:36:46;;;;;;;9.50;8.17;;;9.60;99.90;;;;;;5024190;28;20454;-81
2022/04/26 08:39:30;;;;;;;9.77;7.53;;;9.60;99.90;;;;;;5008867;28;20505;-82
2022/04/26 08:42:15;;;;;;;11.97;9.17;;;9.60;99.90;;;;;;5028548;28;20437;-80
2022/04/26 08:45:00;;;;;;;10.10;8.30;;;9.80;99.90;;;;;;5065685;28;20425;-81
2022/04/26 08:53:44;;;;;;;11.95;10.30;;;9.70;99.90;;;;;;5068352;28;21119;-81
2022/04/26 08:56:29;;;;;;;10.67;8.90;;;9.80;99.90;;;;;;5068020;28;20258;-81
2022/04/26 08:59:13;;;;;;;12.63;9.10;;;9.70;99.90;;;;;;5068841;28;20457;-80
2022/04/26 09:02:19;;;;;;;11.00;8.60;;;9.90;99.90;;;;;;5065553;28;20429;-80
2022/04/26 09:05:18;;;;;;;9.17;7.30;;;9.70;99.90;;;;;;5076081;28;20503;-80
2022/04/26 09:08:18;;;;;;;15.10;9.40;;;9.90;99.90;;;;;;5067866;28;20536;-81
2022/04/26 09:11:03;;;;;;;16.50;15.00;;;9.80;99.90;;;;;;5069550;28;20434;-79
2022/04/26 09:13:48;;;;;;;11.03;8.13;;;9.80;99.90;;;;;;5068215;28;20448;-78
2022/04/26 09:16:34;;;;;;;15.30;8.33;;;9.80;99.90;;;;;;5066107;28;20437;-80
2022/04/26 09:19:19;;;;;;;11.20;8.40;;;9.90;99.90;;;;;;5065698;28;20462;-78
2022/04/26 09:22:15;;;;;;;9.03;7.30;;;9.90;99.90;;;;;;5067835;28;20549;-77
2022/04/26 09:25:04;;;;;;;11.03;7.97;;;9.90;99.90;;;;;;5071346;28;20425;-79
2022/04/26 09:27:57;;;;;;;8.80;7.10;;;9.70;99.90;;;;;;5053047;28;20421;-79
2022/04/26 09:30:42;;;;;;;10.10;6.77;;;9.70;99.90;;;;;;5067515;28;20460;-80
2022/04/26 09:33:47;;;;;;;16.03;9.93;;;9.50;99.90;;;;;;5067788;28;20433;-80
2022/04/26 09:36:43;;;;;;;9.63;7.73;;;9.70;99.90;;;;;;5049656;28;20518;-80
2022/04/26 09:39:27;;;;;;;7.90;6.70;;;9.90;99.90;;;;;;5042087;28;20964;-79
2022/04/26 09:42:13;;;;;;;12.65;9.18;;;9.70;99.90;;;;;;5048534;28;20430;-79
2022/04/26 09:45:14;;;;;;;9.70;7.73;;;9.80;99.90;;;;;;5061160;28;20199;-80
2022/04/26 09:47:58;;;;;;;13.80;8.30;;;9.80;99.90;;;;;;5053587;28;20428;-78
2022/04/26 09:50:44;;;;;;;9.47;6.77;;;10.00;99.90;;;;;;5057159;28;20426;-81
2022/04/26 09:53:29;;;;;;;12.17;8.77;;;9.80;99.90;;;;;;5062073;28;20414;-79
2022/04/26 09:56:21;;;;;;;10.10;8.07;;;9.80;99.90;;;;;;5058376;28;20476;-79
2022/04/26 09:59:06;;;;;;;6.77;6.10;;;10.00;99.90;;;;;;5060830;28;21808;-81
2022/04/26 10:01:55;;;;;;;9.30;6.70;;;10.10;99.90;;;;;;5059377;28;20432;-80
2022/04/26 10:04:47;;;;;;;13.73;7.27;;;10.20;99.90;;;;;;5072730;28;20937;-80
2022/04/26 10:07:44;;;;;;;10.00;8.20;;;10.20;99.90;;;;;;5049119;28;20441;-83
2022/04/26 10:10:48;;;;;;;8.70;7.70;;;10.00;99.90;;;;;;5074626;28;20432;-83
2022/04/26 10:13:39;;;;;;;11.10;7.10;;;9.80;99.90;;;;;;4989234;28;20443;-82
2022/04/26 10:16:25;;;;;;;9.40;8.40;;;9.90;99.90;;;;;;5002894;28;20475;-83
2022/04/26 10:19:12;;;;;;;10.93;7.73;;;10.00;99.90;;;;;;4978095;28;20803;-83
2022/04/26 10:21:57;;;;;;;6.97;6.07;;;10.00;99.90;;;;;;5006814;28;21116;-82
2022/04/26 10:25:07;;;;;;;8.30;7.40;;;10.20;99.90;;;;;;5010311;28;20486;-81
2022/04/26 10:28:21;;;;;;;8.33;7.03;;;10.40;99.90;;;;;;5011198;28;20459;-83
2022/04/26 10:31:42;;;;;;;7.80;7.07;;;10.40;99.90;;;;;;4976572;28;20437;-83
2022/04/26 10:34:33;;;;;;;10.87;6.87;;;10.50;99.90;;;;;;4976417;28;20445;-83
2022/04/26 10:37:34;;;;;;;9.67;7.10;;;10.70;99.90;;;;;;4975209;28;20433;-84
2022/04/26 10:40:18;;;;;;;11.83;9.03;;;10.70;99.90;;;;;;4975512;28;20484;-82
2022/04/26 10:43:06;;;;;;;12.53;7.57;;;10.70;99.90;;;;;;4972561;28;20587;-84
2022/04/26 10:46:15;;;;;;;9.53;6.93;;;10.70;99.90;;;;;;5026427;28;20485;-84
2022/04/26 10:49:40;;;;;;;15.90;8.10;;;10.50;99.90;;;;;;5026892;28;20462;-84
2022/04/26 10:52:35;;;;;;;12.13;7.80;;;10.50;99.90;;;;;;5019193;28;20435;-80
2022/04/26 10:55:26;;;;;;;7.67;6.80;;;10.60;99.90;;;;;;5030110;28;20493;-83
2022/04/26 10:58:11;;;;;;;8.60;7.80;;;10.90;99.90;;;;;;4989257;28;20541;-83
2022/04/26 11:00:56;;;;;;;8.63;6.73;;;11.10;99.90;;;;;;5034199;28;20437;-85
2022/04/26 11:03:55;;;;;;;10.03;8.70;;;11.20;99.90;;;;;;5029942;28;20470;-83
2022/04/26 11:06:42;;;;;;;10.37;7.10;;;11.20;99.90;;;;;;5056326;28;20456;-83
2022/04/26 11:09:27;;;;;;;10.60;7.80;;;11.20;99.90;;;;;;5075649;28;21023;-83
2022/04/26 11:12:12;;;;;;;8.83;7.50;;;11.20;99.90;;;;;;5066517;28;20474;-84
2022/04/26 11:14:59;;;;;;;9.80;8.50;;;11.20;99.90;;;;;;5072213;28;20436;-82
2022/04/26 11:17:43;;;;;;;11.73;9.40;;;11.10;99.90;;;;;;5055650;28;20518;-82
2022/04/26 11:20:30;;;;;;;13.27;9.50;;;11.00;99.90;;;;;;5058301;28;20428;-82
2022/04/26 11:29:30;;;;;;;10.40;8.80;;;11.20;99.90;;;;;;5065245;28;20495;-82
2022/04/26 11:32:34;;;;;;;17.00;9.50;;;10.80;99.90;;;;;;5039328;28;20428;-82
2022/04/26 11:35:20;;;;;;;10.00;7.87;;;10.70;99.90;;;;;;5066362;28;20425;-80
2022/04/26 11:38:08;;;;;;;9.03;7.53;;;10.80;99.90;;;;;;5068610;28;20432;-82
2022/04/26 11:40:58;;;;;;;8.70;7.43;;;10.80;99.90;;;;;;5082599;28;20437;-81
2022/04/26 11:43:43;;;;;;;8.87;7.97;;;10.90;99.90;;;;;;5081007;28;20467;-81
2022/04/26 11:46:30;;;;;;;7.27;6.40;;;11.00;99.90;;;;;;5071511;28;20428;-81
2022/04/26 11:49:41;;;;;;;9.60;7.90;;;10.70;99.90;;;;;;5063122;28;20824;-80
2022/04/26 11:52:26;;;;;;;6.40;5.67;;;10.60;99.90;;;;;;5027957;28;20441;-80
2022/04/26 11:55:30;;;;;;;12.17;7.50;;;10.50;99.90;;;;;;5025143;28;20462;-81
2022/04/26 11:58:18;;;;;;;8.67;6.83;;;10.30;99.90;;;;;;5018754;28;20442;-79
2022/04/26 12:01:11;;;;;;;9.10;7.10;;;10.30;99.90;;;;;;5005765;28;20471;-80
2022/04/26 12:03:57;;;;;;;18.20;16.80;;;10.60;99.90;;;;;;5001591;28;20483;-80
2022/04/26 12:06:44;;;;;;;7.40;6.70;;;10.40;99.90;;;;;;4996733;28;20455;-81
2022/04/26 12:09:40;;;;;;;11.97;7.20;;;10.20;99.90;;;;;;5020817;28;20459;-82
2022/04/26 12:12:25;;;;;;;10.10;7.17;;;10.10;99.90;;;;;;4983630;28;20436;-78
2022/04/26 12:15:13;;;;;;;9.43;7.07;;;9.90;99.90;;;;;;4992932;28;20430;-79
2022/04/26 12:18:13;;;;;;;6.77;6.17;;;10.00;99.90;;;;;;4965001;28;20457;-80
2022/04/26 12:21:00;;;;;;;8.40;6.73;;;10.20;99.90;;;;;;4965187;28;21621;-79
2022/04/26 12:23:46;;;;;;;11.97;9.33;;;10.20;99.90;;;;;;4977014;28;20472;-80
2022/04/26 12:26:30;;;;;;;13.17;8.00;;;10.40;99.90;;;;;;4990498;28;20435;-79
2022/04/26 12:29:15;;;;;;;10.93;8.70;;;10.50;99.90;;;;;;5007151;28;20557;-81
2022/04/26 12:32:03;;;;;;;13.80;9.67;;;10.80;99.90;;;;;;4974392;28;20431;-81
2022/04/26 12:34:56;;;;;;;14.10;9.77;;;11.10;99.90;;;;;;4991415;28;20428;-80
2022/04/26 12:37:41;;;;;;;10.30;9.20;;;11.20;99.90;;;;;;4991043;28;20471;-82
2022/04/26 12:40:26;;;;;;;8.93;8.03;;;11.20;99.90;;;;;;4977500;28;20432;-81
2022/04/26 12:43:28;;;;;;;8.50;7.80;;;11.10;99.90;;;;;;5006627;28;20471;-82
2022/04/26 12:46:12;;;;;;;10.17;8.70;;;11.20;99.90;;;;;;4979790;28;20532;-80
2022/04/26 12:52:01;;;;;;;12.33;9.53;;;11.20;99.90;;;;;;5083374;28;20439;-81
2022/04/26 12:54:55;;;;;;;14.53;9.53;;;11.40;99.90;;;;;;5083409;28;20412;-83
2022/04/26 12:57:48;;;;;;;10.13;9.00;;;11.60;99.90;;;;;;5087508;28;20427;-80
2022/04/26 13:00:39;;;;;;;10.50;8.47;;;11.80;99.90;;;;;;5068797;28;20418;-81
2022/04/26 13:03:24;;;;;;;10.27;8.10;;;11.80;99.90;;;;;;5080270;28;20440;-82
2022/04/26 13:06:14;;;;;;;12.37;8.97;;;11.90;99.90;;;;;;5087239;28;20436;-80
2022/04/26 13:08:58;;;;;;;11.50;8.83;;;11.70;99.90;;;;;;5064582;28;20440;-82
2022/04/26 13:11:44;;;;;;;10.90;8.00;;;11.90;99.90;;;;;;5082842;28;20424;-79
2022/04/26 13:14:28;;;;;;;11.27;8.07;;;11.90;99.90;;;;;;5087340;28;20428;-80
2022/04/26 13:17:13;;;;;;;9.07;7.93;;;11.90;99.90;;;;;;5074379;28;20451;-80
2022/04/26 13:19:59;;;;;;;9.10;7.60;;;11.70;99.90;;;;;;5067452;28;20444;-78
2022/04/26 13:22:43;;;;;;;19.30;7.80;;;11.80;99.90;;;;;;5086023;28;20428;-82
2022/04/26 13:25:28;;;;;;;10.20;7.40;;;11.70;99.90;;;;;;5089417;28;20478;-81
2022/04/26 13:28:13;;;;;;;7.83;7.00;;;11.70;99.90;;;;;;5086526;28;20484;-80
2022/04/26 13:30:57;;;;;;;7.50;6.73;;;11.70;99.90;;;;;;5071499;28;20479;-80
2022/04/26 13:33:45;;;;;;;8.23;7.20;;;11.70;99.90;;;;;;5087516;28;20436;-80
2022/04/26 13:36:29;;;;;;;7.93;7.17;;;11.70;99.90;;;;;;5080061;28;20481;-81
2022/04/26 13:39:14;;;;;;;8.80;7.80;;;11.70;99.90;;;;;;5072985;28;20424;-79
2022/04/26 13:41:58;;;;;;;9.30;6.67;;;11.60;99.90;;;;;;5078262;28;20936;-81
2022/04/26 13:44:43;;;;;;;8.60;7.70;;;11.60;99.90;;;;;;5062582;28;20449;-80
2022/04/26 13:47:28;;;;;;;10.17;9.03;;;11.60;99.90;;;;;;5045114;28;20448;-81
2022/04/26 13:50:13;;;;;;;11.20;8.40;;;11.60;99.90;;;;;;5076887;28;20455;-84
2022/04/26 13:52:57;;;;;;;9.77;8.77;;;11.60;99.90;;;;;;5064272;28;20420;-81
2022/04/26 13:55:42;;;;;;;10.30;8.43;;;11.60;99.90;;;;;;5061701;28;20808;-82
2022/04/26 13:58:27;;;;;;;9.60;8.60;;;11.50;99.90;;;;;;5066211;28;20487;-82
2022/04/26 14:01:11;;;;;;;9.73;8.00;;;11.50;99.90;;;;;;5053712;28;20956;-82
2022/04/26 14:03:55;;;;;;;11.53;8.70;;;11.50;99.90;;;;;;5057893;28;20506;-81
2022/04/26 14:06:40;;;;;;;10.20;8.90;;;11.40;99.90;;;;;;5079575;28;20424;-83
2022/04/26 14:09:25;;;;;;;13.70;9.13;;;11.40;99.90;;;;;;5081439;28;20468;-83
2022/04/26 14:12:29;;;;;;;10.60;9.40;;;11.30;99.90;;;;;;5078271;28;20444;-83
2022/04/26 14:24:12;;;;;;;11.40;9.13;;;11.30;99.90;;;;;;5042855;28;20440;-79
2022/04/26 14:26:57;;;;;;;14.00;9.67;;;11.40;99.90;;;;;;5052534;28;20503;-80
2022/04/26 14:29:42;;;;;;;13.80;11.00;;;11.50;99.90;;;;;;5051127;28;20999;-81
2022/04/26 14:32:26;;;;;;;13.00;9.70;;;11.50;99.90;;;;;;5056744;28;20430;-79
2022/04/26 14:35:12;;;;;;;13.60;9.13;;;11.60;99.90;;;;;;5056253;28;20507;-79
2022/04/26 14:37:58;;;;;;;19.80;9.80;;;11.60;99.90;;;;;;5062279;28;20511;-82
2022/04/26 14:40:43;;;;;;;11.50;9.63;;;11.60;99.90;;;;;;5053936;28;20433;-79
2022/04/26 14:43:28;;;;;;;11.03;8.37;;;11.70;99.90;;;;;;5048003;28;20453;-82
2022/04/26 14:46:13;;;;;;;13.10;9.30;;;11.70;99.90;;;;;;5076879;28;20436;-80
2022/04/26 14:48:58;;;;;;;10.53;9.43;;;11.70;99.90;;;;;;5073448;28;20459;-82
2022/04/26 14:51:44;;;;;;;11.73;10.50;;;11.70;99.90;;;;;;5077516;28;20529;-83
2022/04/26 14:54:29;;;;;;;11.27;10.17;;;11.80;99.90;;;;;;5081876;28;20432;-82
2022/04/26 14:57:17;;;;;;;10.90;8.40;;;11.70;99.90;;;;;;5076059;28;20523;-82
2022/04/26 15:00:05;;;;;;;12.43;10.33;;;11.70;99.90;;;;;;5077772;28;20483;-80
2022/04/26 15:02:50;;;;;;;11.63;9.00;;;11.60;99.90;;;;;;5057594;28;20804;-82
2022/04/26 15:05:34;;;;;;;12.97;8.90;;;11.50;99.90;;;;;;5065196;28;20463;-80
2022/04/26 15:11:23;;;;;;;11.10;9.10;;;11.40;99.90;;;;;;5072296;28;20536;-82
2022/04/26 15:17:06;;;;;;;15.03;9.30;;;11.30;99.90;;;;;;5039817;28;20497;-80
2022/04/26 15:19:51;;;;;;;10.73;8.00;;;11.20;99.90;;;;;;5074248;28;20796;-82
2022/04/26 15:22:37;;;;;;;9.20;7.67;;;11.20;99.90;;;;;;5061237;28;20931;-82
2022/04/26 15:25:21;;;;;;;16.33;9.00;;;11.20;99.90;;;;;;5078238;28;20436;-80
2022/04/26 15:28:09;;;;;;;17.57;10.90;;;11.20;99.90;;;;;;5079020;28;20425;-81
2022/04/26 15:30:53;;;;;;;10.70;8.23;;;11.20;99.90;;;;;;5073849;28;20448;-82
2022/04/26 15:33:38;;;;;;;10.30;8.23;;;11.10;99.90;;;;;;5075179;28;20424;-82
2022/04/26 15:36:24;;;;;;;11.33;9.47;;;11.10;99.90;;;;;;5076209;28;20758;-82
2022/04/26 15:39:11;;;;;;;11.53;10.30;;;11.10;99.90;;;;;;5063331;28;20429;-82
2022/04/26 15:41:56;;;;;;;12.83;9.57;;;11.10;99.90;;;;;;5078677;28;20494;-80
2022/04/26 15:44:41;;;;;;;10.07;8.90;;;11.00;99.90;;;;;;5056782;28;20426;-79
2022/04/26 15:47:26;;;;;;;10.83;9.13;;;11.10;99.90;;;;;;5076820;28;20421;-78
2022/04/26 15:50:11;;;;;;;14.60;8.23;;;11.00;99.90;;;;;;5082539;28;20460;-79
2022/04/26 15:52:56;;;;;;;11.93;10.23;;;11.00;99.90;;;;;;5082308;28;20422;-79
2022/04/26 15:55:41;;;;;;;17.13;10.80;;;11.00;99.90;;;;;;5058585;28;20463;-80
2022/04/26 15:58:26;;;;;;;11.20;9.30;;;11.00;99.90;;;;;;5088869;28;20416;-80
2022/04/26 16:01:12;;;;;;;14.60;9.50;;;11.00;99.90;;;;;;5077761;28;20427;-80
2022/04/26 16:03:56;;;;;;;10.47;9.37;;;11.00;99.90;;;;;;5076087;28;20807;-79
2022/04/26 16:06:41;;;;;;;14.23;11.70;;;10.90;99.90;;;;;;5091321;28;20436;-80
2022/04/26 16:21:27;;;;;;;10.23;8.93;;;11.00;99.90;;;;;;5071030;28;20464;-80
2022/04/26 16:24:12;;;;;;;12.37;8.23;;;11.00;99.90;;;;;;5060848;28;20412;-80
2022/04/26 16:26:56;;;;;;;12.00;10.10;;;11.00;99.90;;;;;;5075530;28;20484;-80
2022/04/26 16:29:41;;;;;;;15.87;9.63;;;11.10;99.90;;;;;;5076736;28;20444;-80
2022/04/26 16:32:28;;;;;;;11.93;8.97;;;11.00;99.90;;;;;;5094881;28;20391;-80
2022/04/26 16:35:13;;;;;;;12.80;8.70;;;11.10;99.90;;;;;;5086421;28;20393;-80
2022/04/26 16:37:58;;;;;;;8.93;8.10;;;11.10;99.90;;;;;;5091377;28;20435;-81
2022/04/26 16:40:42;;;;;;;10.30;9.30;;;11.10;99.90;;;;;;5074772;28;20425;-79
2022/04/26 16:43:27;;;;;;;8.90;7.93;;;11.10;99.90;;;;;;5077765;28;20508;-80
2022/04/26 16:46:16;;;;;;;11.43;9.53;;;11.10;99.90;;;;;;5065409;28;20420;-79
2022/04/26 16:49:02;;;;;;;9.00;8.10;;;11.10;99.90;;;;;;5092290;28;20459;-79
2022/04/26 16:51:47;;;;;;;8.13;7.40;;;11.20;99.90;;;;;;5089600;28;20423;-79
2022/04/26 16:54:31;;;;;;;16.40;9.67;;;11.10;99.90;;;;;;5094450;28;20404;-79
2022/04/26 16:57:18;;;;;;;15.27;8.77;;;11.20;99.90;;;;;;5061084;28;20476;-81
2022/04/26 17:00:04;;;;;;;11.17;9.17;;;11.30;99.90;;;;;;5094752;28;20500;-80
2022/04/26 17:02:49;;;;;;;11.90;9.33;;;11.30;99.90;;;;;;5099597;28;20472;-79
2022/04/26 17:05:34;;;;;;;9.10;7.77;;;11.30;99.90;;;;;;5100235;28;20476;-80
2022/04/26 17:08:19;;;;;;;11.40;8.87;;;11.30;99.90;;;;;;5075036;28;20487;-79
2022/04/26 17:14:00;;;;;;;9.67;7.90;;;11.10;99.90;;;;;;5087058;28;20483;-80
2022/04/26 17:16:48;;;;;;;10.23;8.70;;;11.20;99.90;;;;;;5092364;28;20420;-81
2022/04/26 17:19:34;;;;;;;12.33;9.60;;;11.20;99.90;;;;;;5071912;28;20398;-80
2022/04/26 17:22:19;;;;;;;12.10;9.37;;;11.20;99.90;;;;;;5060476;28;20427;-81
2022/04/26 17:28:04;;;;;;;12.13;9.77;;;11.20;99.90;;;;;;5092213;28;20437;-80
2022/04/26 17:30:49;;;;;;;13.47;10.37;;;11.30;99.90;;;;;;5093258;28;20389;-80
2022/04/26 17:33:34;;;;;;;12.13;9.20;;;11.20;99.90;;;;;;5091526;28;20550;-79
2022/04/26 17:36:18;;;;;;;9.90;8.20;;;11.10;99.90;;;;;;5092832;28;20397;-80
2022/04/26 17:39:03;;;;;;;9.80;8.80;;;10.80;99.90;;;;;;5093772;28;20436;-80
2022/04/26 17:41:49;;;;;;;13.73;9.10;;;10.70;99.90;;;;;;5090731;28;20433;-80
2022/04/26 17:44:35;;;;;;;11.10;8.90;;;10.60;99.90;;;;;;5088642;28;20404;-80
2022/04/26 17:47:20;;;;;;;12.93;9.10;;;10.60;99.90;;;;;;5091794;28;20468;-81
2022/04/26 17:50:07;;;;;;;11.40;10.20;;;10.60;99.90;;;;;;5092580;28;20498;-81
2022/04/26 17:58:50;;;;;;;11.97;8.60;;;10.80;99.90;;;;;;5087515;28;20467;-80
2022/04/26 18:01:35;;;;;;;13.63;10.43;;;10.90;99.90;;;;;;5089223;28;20385;-79
2022/04/26 18:04:19;;;;;;;14.00;10.10;;;10.80;99.90;;;;;;5076734;28;20480;-80
2022/04/26 18:07:04;;;;;;;12.73;10.23;;;10.80;99.90;;;;;;5077136;28;20472;-80
2022/04/26 18:09:50;;;;;;;13.27;9.87;;;11.00;99.90;;;;;;5077325;28;20490;-80
2022/04/26 18:12:37;;;;;;;12.90;9.93;;;11.00;99.90;;;;;;5072557;28;20782;-80
2022/04/26 18:15:21;;;;;;;10.60;8.10;;;10.90;99.90;;;;;;5072448;28;20397;-80
2022/04/26 18:18:06;;;;;;;13.40;9.57;;;11.00;99.90;;;;;;5081035;28;20467;-80
2022/04/26 18:20:53;;;;;;;13.87;9.77;;;11.00;99.90;;;;;;5077515;28;20413;-80
2022/04/26 18:23:38;;;;;;;13.47;9.83;;;11.00;99.90;;;;;;5092339;28;20446;-80
2022/04/26 18:26:23;;;;;;;11.93;9.00;;;11.00;99.90;;;;;;5077101;28;20793;-81
2022/04/26 18:29:08;;;;;;;13.13;10.37;;;11.10;99.90;;;;;;5089848;28;20475;-81
2022/04/26 18:31:53;;;;;;;13.30;11.80;;;11.10;99.90;;;;;;5091986;28;20459;-81
2022/04/26 18:34:38;;;;;;;12.73;11.50;;;11.10;99.90;;;;;;5090899;28;20931;-81
2022/04/26 18:37:23;;;;;;;14.37;10.30;;;11.20;99.90;;;;;;5091729;28;20389;-81
2022/04/26 18:40:08;;;;;;;12.40;10.03;;;11.20;99.90;;;;;;5076762;28;20392;-80
2022/04/26 18:42:53;;;;;;;10.83;8.20;;;11.20;99.90;;;;;;5070093;28;20413;-80
2022/04/26 18:45:37;;;;;;;11.90;9.43;;;11.20;99.90;;;;;;5071605;28;20386;-80
2022/04/26 18:48:22;;;;;;;12.77;9.07;;;11.20;99.90;;;;;;5061576;28;20486;-80
2022/04/26 18:51:07;;;;;;;14.93;10.33;;;11.00;99.90;;;;;;5034934;28;20414;-80
2022/04/26 18:53:52;;;;;;;14.87;9.97;;;11.00;99.90;;;;;;5063776;28;20529;-81
2022/04/26 18:56:36;;;;;;;15.77;10.70;;;11.00;99.90;;;;;;5055502;28;20453;-80
2022/04/26 18:59:21;;;;;;;15.50;11.30;;;10.80;99.90;;;;;;5068892;28;20440;-81
2022/04/26 19:02:06;;;;;;;11.33;8.67;;;10.80;99.90;;;;;;5056264;28;20495;-81